フィレンツェ の空港の天気 - METARとTAF

フィレンツェ・ペレトラ空港 ( LIRQ / FLR ) - イタリア フィレンツェ
飛行場実況気象(Metar)
観測時間06/23 03:20 CEST (06/23 01:20 UTC)
風向・風速東 2m/s
視程10km以上
天気現象
なし
気温21℃
湿度78%
気圧1018hPa
METARLIRQ 230120Z 09004KT CAVOK 21/17 Q1018
過去の天気等 Google飛行場航空写真 Wunderground天気予報

過去48時間のMETAR

飛行場予報(TAF)
発表時間: 6/23 01:00 CEST (6/22 23:00 UTC)
予報対象時間: 23日2時 CEST ~ 24日2時 CEST
風向・風速不定 2m/s
視程10km以上
なし
23日11時 CEST ~ 23日13時 CEST に徐々に
風向・風速南西 5m/s
23日20時 CEST ~ 23日22時 CEST に徐々に
風向・風速不定 3m/s
TAF LIRQ 222300Z 2300/2324 VRB04KT CAVOK
BECMG 2309/2311 23010KT
BECMG 2318/2320 VRB05KT